Time;durP1;ratioP1;P1;durP2;ratioP2;P2;SDS_P1;SDS_P2;PMS_P1;PMS_P2;Temp;Humidity;BMP_temperature;BMP_pressure;BME280_temperature;BME280_humidity;BME280_pressure;Samples;Min_cycle;Max_cycle;Signal;HPM_P1;HPM_P2
2023/08/10 00:01:48;;;;;;;4.40;1.77;;;19.00;53.50;;;;;;5026360;28;20053;-61
2023/08/10 00:04:15;;;;;;;3.63;1.70;;;19.00;53.60;;;;;;5025835;28;20520;-62
2023/08/10 00:06:43;;;;;;;4.75;2.22;;;18.90;53.70;;;;;;5025380;28;20501;-62
2023/08/10 00:09:11;;;;;;;4.70;2.22;;;18.90;53.70;;;;;;5026694;28;20045;-60
2023/08/10 00:11:39;;;;;;;3.70;2.10;;;18.90;54.30;;;;;;5025277;28;20049;-61
2023/08/10 00:14:07;;;;;;;9.38;2.65;;;18.90;53.80;;;;;;5026703;28;20060;-61
2023/08/10 00:16:35;;;;;;;6.95;2.20;;;18.90;53.80;;;;;;5025351;28;20408;-62
2023/08/10 00:19:02;;;;;;;5.05;2.17;;;18.90;53.80;;;;;;5026661;28;20049;-61
2023/08/10 00:21:29;;;;;;;5.75;2.50;;;18.90;53.80;;;;;;5025589;28;20053;-62
2023/08/10 00:23:57;;;;;;;7.25;2.63;;;18.90;53.80;;;;;;5025563;28;20045;-61
2023/08/10 00:26:25;;;;;;;4.78;2.08;;;18.90;53.90;;;;;;5024587;28;20059;-61
2023/08/10 00:28:53;;;;;;;7.75;2.33;;;18.90;54.00;;;;;;5024930;28;20068;-61
2023/08/10 00:31:21;;;;;;;5.93;2.13;;;18.90;54.00;;;;;;5026246;28;20054;-63
2023/08/10 00:33:48;;;;;;;4.80;2.20;;;18.90;54.00;;;;;;5025731;28;20049;-61
2023/08/10 00:36:16;;;;;;;5.13;2.30;;;18.90;53.90;;;;;;5026217;28;20065;-61
2023/08/10 00:38:43;;;;;;;5.35;2.20;;;18.90;54.00;;;;;;5025478;28;20049;-62
2023/08/10 00:41:10;;;;;;;6.90;2.55;;;18.90;54.60;;;;;;5024723;28;20057;-63
2023/08/10 00:43:37;;;;;;;5.72;2.17;;;18.90;54.20;;;;;;5026024;28;20057;-61
2023/08/10 00:46:06;;;;;;;4.45;2.33;;;18.90;54.20;;;;;;5024578;28;20053;-61
2023/08/10 00:48:35;;;;;;;3.42;2.15;;;18.90;54.30;;;;;;5026816;28;20053;-62
2023/08/10 00:51:02;;;;;;;4.03;2.45;;;18.90;54.30;;;;;;5026013;28;20057;-61
2023/08/10 00:53:30;;;;;;;5.65;2.83;;;18.90;54.90;;;;;;5024608;28;20057;-62
2023/08/10 00:55:58;;;;;;;5.55;2.25;;;18.90;54.40;;;;;;5024909;28;20049;-62
2023/08/10 00:58:27;;;;;;;3.63;1.70;;;18.90;54.40;;;;;;5023461;28;20041;-62
2023/08/10 01:00:54;;;;;;;3.53;2.10;;;18.90;54.30;;;;;;5026011;28;20052;-63
2023/08/10 01:03:22;;;;;;;4.10;2.05;;;18.90;54.20;;;;;;5043862;23;20065;-87
2023/08/10 01:06:00;;;;;;;3.53;2.03;;;18.90;54.20;;;;;;5059296;28;20053;-87
2023/08/10 01:08:36;;;;;;;3.15;2.00;;;18.90;54.30;;;;;;5060095;28;20048;-86
2023/08/10 01:11:12;;;;;;;4.50;2.30;;;18.90;54.30;;;;;;5060881;28;20048;-85
2023/08/10 01:13:45;;;;;;;5.32;2.40;;;18.90;54.40;;;;;;5057901;28;20936;-84
2023/08/10 01:16:15;;;;;;;3.25;2.10;;;18.90;54.40;;;;;;5058595;28;20057;-87
2023/08/10 01:18:44;;;;;;;3.70;1.90;;;18.90;54.40;;;;;;5059316;28;20056;-85
2023/08/10 01:21:26;;;;;;;3.72;2.10;;;18.90;54.40;;;;;;5056409;28;20419;-87
2023/08/10 01:23:56;;;;;;;5.13;2.80;;;18.90;54.60;;;;;;5053251;28;20068;-89
2023/08/10 01:26:27;;;;;;;5.03;2.55;;;18.90;55.10;;;;;;5055851;28;20068;-87
2023/08/10 01:28:56;;;;;;;6.03;2.72;;;18.90;54.70;;;;;;5059084;28;20056;-85
2023/08/10 01:31:23;;;;;;;4.57;2.63;;;18.90;54.70;;;;;;5057393;28;20503;-84
2023/08/10 01:33:51;;;;;;;5.97;3.17;;;18.90;54.70;;;;;;5057234;28;20052;-88
2023/08/10 01:36:18;;;;;;;7.55;2.58;;;18.90;54.70;;;;;;5056987;28;20516;-86
2023/08/10 01:38:46;;;;;;;6.68;2.50;;;18.90;54.70;;;;;;5058066;28;20044;-87
2023/08/10 01:41:13;;;;;;;5.90;2.80;;;18.80;54.80;;;;;;5059037;28;20059;-84
2023/08/10 01:43:42;;;;;;;7.93;2.60;;;18.80;54.80;;;;;;5061122;28;20495;-85
2023/08/10 01:46:15;;;;;;;4.43;2.60;;;18.80;54.90;;;;;;5059689;28;20064;-85
2023/08/10 01:48:46;;;;;;;5.78;2.25;;;18.70;54.80;;;;;;5061335;28;20052;-85
2023/08/10 01:51:16;;;;;;;4.93;2.33;;;18.80;54.80;;;;;;5057962;28;20056;-88
2023/08/10 01:53:46;;;;;;;10.80;3.63;;;18.80;54.80;;;;;;5059111;28;20057;-87
2023/08/10 01:56:15;;;;;;;7.30;2.45;;;18.70;54.80;;;;;;5057973;28;20052;-86
2023/08/10 01:58:43;;;;;;;8.77;2.80;;;18.70;54.80;;;;;;5058622;28;20044;-85
2023/08/10 02:01:11;;;;;;;9.15;2.30;;;18.70;54.90;;;;;;5061817;28;20052;-88
2023/08/10 02:03:39;;;;;;;5.40;2.42;;;18.70;54.90;;;;;;5054350;28;20503;-87
2023/08/10 02:06:06;;;;;;;11.25;3.45;;;18.70;55.00;;;;;;5057251;28;20499;-85
2023/08/10 02:08:34;;;;;;;4.53;2.20;;;18.70;55.00;;;;;;5058314;28;20044;-85
2023/08/10 02:11:01;;;;;;;6.70;2.80;;;18.70;55.00;;;;;;5059793;28;20052;-86
2023/08/10 02:13:28;;;;;;;5.47;2.38;;;18.70;55.00;;;;;;5058678;28;20063;-85
2023/08/10 02:15:57;;;;;;;4.25;2.05;;;18.60;55.10;;;;;;5058719;28;20523;-86
2023/08/10 02:18:24;;;;;;;4.32;2.17;;;18.70;55.20;;;;;;5059715;28;20415;-85
2023/08/10 02:20:51;;;;;;;5.85;2.10;;;18.70;55.20;;;;;;5056352;28;20044;-87
2023/08/10 02:23:19;;;;;;;3.22;2.22;;;18.70;55.30;;;;;;5060107;28;20480;-87
2023/08/10 02:25:46;;;;;;;3.50;2.67;;;18.70;55.30;;;;;;5058627;28;20405;-87
2023/08/10 02:28:13;;;;;;;4.88;3.08;;;18.70;55.30;;;;;;5062130;28;20052;-86
2023/08/10 02:30:41;;;;;;;6.80;3.03;;;18.70;55.10;;;;;;5058994;28;20056;-85
2023/08/10 02:33:09;;;;;;;6.28;2.95;;;18.70;55.10;;;;;;5057349;28;20498;-86
2023/08/10 02:35:37;;;;;;;5.55;3.33;;;18.70;55.00;;;;;;5064900;28;20049;-87
2023/08/10 02:38:04;;;;;;;5.88;2.38;;;18.60;55.00;;;;;;5057658;28;20423;-87
2023/08/10 02:40:31;;;;;;;7.38;3.30;;;18.60;55.00;;;;;;5057061;28;20499;-86
2023/08/10 02:42:59;;;;;;;6.78;2.28;;;18.60;55.10;;;;;;5055927;28;20099;-86
2023/08/10 02:45:26;;;;;;;9.32;3.35;;;18.60;55.20;;;;;;5059299;28;21012;-85
2023/08/10 02:47:54;;;;;;;6.47;3.13;;;18.60;55.30;;;;;;5058921;28;20071;-86
2023/08/10 02:50:22;;;;;;;7.93;2.80;;;18.60;55.20;;;;;;5058502;28;20910;-85
2023/08/10 02:52:50;;;;;;;5.43;2.50;;;18.60;55.30;;;;;;5064003;28;20068;-87
2023/08/10 02:55:17;;;;;;;3.45;2.35;;;18.60;55.50;;;;;;5058032;28;20052;-87
2023/08/10 02:57:44;;;;;;;3.35;2.28;;;18.60;55.50;;;;;;5055564;28;20499;-86
2023/08/10 03:00:12;;;;;;;5.88;2.60;;;18.60;55.60;;;;;;5062252;28;20518;-86
2023/08/10 03:02:40;;;;;;;5.75;2.63;;;18.60;55.50;;;;;;5053776;28;20500;-87
2023/08/10 03:05:08;;;;;;;4.22;2.38;;;18.50;55.40;;;;;;5055307;28;20064;-88
2023/08/10 03:07:37;;;;;;;8.07;2.40;;;18.50;55.40;;;;;;5058375;28;20522;-87
2023/08/10 03:10:05;;;;;;;4.93;2.75;;;18.50;55.30;;;;;;5058555;28;20052;-86
2023/08/10 03:12:32;;;;;;;5.78;2.70;;;18.50;55.30;;;;;;5055626;28;20404;-88
2023/08/10 03:14:59;;;;;;;5.18;2.55;;;18.50;55.20;;;;;;5064590;28;20043;-87
2023/08/10 03:17:27;;;;;;;8.15;2.28;;;18.40;55.20;;;;;;5057863;28;20392;-87
2023/08/10 03:19:54;;;;;;;5.50;2.42;;;18.40;55.20;;;;;;5056611;28;20537;-88
2023/08/10 03:22:24;;;;;;;6.43;2.95;;;18.40;55.20;;;;;;5056650;28;20056;-89
2023/08/10 03:24:53;;;;;;;4.40;2.17;;;18.40;55.30;;;;;;5048627;28;20052;-88
2023/08/10 03:27:20;;;;;;;5.53;2.40;;;18.40;55.20;;;;;;5056032;28;20940;-90
2023/08/10 03:29:48;;;;;;;9.95;2.75;;;18.30;55.10;;;;;;5057455;28;20055;-89
2023/08/10 03:32:15;;;;;;;4.50;2.80;;;18.40;55.20;;;;;;5053598;28;20407;-90
2023/08/10 03:34:42;;;;;;;5.50;2.00;;;18.30;55.10;;;;;;5050528;28;20056;-88
2023/08/10 03:37:09;;;;;;;4.40;2.13;;;18.30;55.20;;;;;;5060191;28;20075;-93
2023/08/10 03:39:37;;;;;;;4.78;2.78;;;18.30;55.30;;;;;;5055311;28;20055;-92
2023/08/10 03:42:06;;;;;;;4.55;2.38;;;18.20;55.30;;;;;;5054336;28;21168;-87
2023/08/10 03:44:33;;;;;;;5.03;2.05;;;18.20;55.30;;;;;;5058550;28;20247;-90
2023/08/10 03:47:01;;;;;;;4.45;2.08;;;18.20;55.40;;;;;;5062709;28;20056;-90
2023/08/10 03:49:28;;;;;;;3.55;2.45;;;18.20;55.40;;;;;;5058926;28;20059;-92
2023/08/10 03:51:56;;;;;;;6.97;1.92;;;18.20;55.50;;;;;;5063443;28;20123;-88
2023/08/10 03:54:23;;;;;;;2.63;1.77;;;18.20;55.50;;;;;;5066333;28;20064;-91
2023/08/10 03:56:51;;;;;;;3.58;2.50;;;18.10;55.50;;;;;;5059851;28;20053;-87
2023/08/10 03:59:19;;;;;;;4.82;2.28;;;18.10;55.60;;;;;;5059343;28;20052;-91
2023/08/10 04:01:48;;;;;;;7.47;2.33;;;18.10;55.60;;;;;;5064812;28;20815;-93
2023/08/10 04:04:16;;;;;;;3.78;2.40;;;18.10;55.60;;;;;;5054989;28;20059;-89
2023/08/10 04:06:43;;;;;;;4.72;2.25;;;18.10;55.70;;;;;;5063314;28;20055;-90
2023/08/10 04:09:10;;;;;;;6.72;2.17;;;18.00;55.60;;;;;;5064259;28;20049;-91
2023/08/10 04:11:38;;;;;;;4.47;1.85;;;18.00;55.70;;;;;;5064453;28;20065;-91
2023/08/10 04:14:39;;;;;;;4.07;2.30;;;18.00;55.60;;;;;;5061807;28;20094;-90
2023/08/10 04:17:07;;;;;;;4.30;2.15;;;18.00;55.70;;;;;;5059933;28;20472;-89
2023/08/10 04:19:35;;;;;;;3.22;2.10;;;18.00;55.50;;;;;;5060577;28;20056;-87
2023/08/10 04:22:02;;;;;;;2.75;1.80;;;17.90;55.50;;;;;;5061744;28;20056;-91
2023/08/10 04:24:30;;;;;;;3.30;1.98;;;17.90;55.50;;;;;;5062580;28;20052;-89
2023/08/10 04:26:57;;;;;;;5.85;2.67;;;17.90;55.60;;;;;;5061443;28;20064;-89
2023/08/10 04:29:27;;;;;;;3.17;2.03;;;17.80;55.70;;;;;;5063727;28;20048;-89
2023/08/10 04:31:56;;;;;;;4.85;3.10;;;17.80;55.80;;;;;;5066945;28;20052;-88
2023/08/10 04:34:24;;;;;;;4.25;2.25;;;17.80;55.90;;;;;;5055981;28;20427;-92
2023/08/10 04:36:51;;;;;;;7.05;3.78;;;17.80;56.00;;;;;;5061216;28;20518;-87
2023/08/10 04:39:19;;;;;;;6.55;3.25;;;17.80;56.10;;;;;;5065601;28;20044;-88
2023/08/10 04:41:46;;;;;;;4.97;2.40;;;17.70;56.20;;;;;;5059209;28;20492;-87
2023/08/10 04:44:13;;;;;;;5.90;2.03;;;17.70;56.30;;;;;;5061606;28;20048;-87
2023/08/10 04:46:41;;;;;;;6.38;2.28;;;17.80;56.50;;;;;;5060573;28;20063;-93
2023/08/10 04:49:10;;;;;;;5.63;2.15;;;17.80;56.60;;;;;;5058111;28;20044;-88
2023/08/10 04:51:37;;;;;;;3.80;1.92;;;17.80;56.60;;;;;;5059511;28;20583;-88
2023/08/10 04:54:05;;;;;;;2.65;1.73;;;17.80;56.60;;;;;;5061374;28;20064;-86
2023/08/10 04:56:33;;;;;;;5.07;2.28;;;17.80;56.70;;;;;;5055214;28;20416;-87
2023/08/10 04:59:00;;;;;;;6.05;2.13;;;17.80;56.80;;;;;;5061474;28;20049;-88
2023/08/10 05:01:27;;;;;;;3.30;1.83;;;17.80;56.80;;;;;;5051951;28;20056;-89
2023/08/10 05:03:55;;;;;;;4.45;2.10;;;17.80;56.90;;;;;;5053628;28;20059;-89
2023/08/10 05:06:24;;;;;;;3.63;1.70;;;17.80;56.90;;;;;;5066902;28;20052;-88
2023/08/10 05:08:51;;;;;;;3.45;1.60;;;17.90;57.00;;;;;;5058565;28;20068;-89
2023/08/10 05:11:18;;;;;;;5.57;2.50;;;17.90;57.00;;;;;;5058364;28;20052;-89
2023/08/10 05:13:46;;;;;;;3.67;2.50;;;17.90;57.00;;;;;;5060037;28;20056;-88
2023/08/10 05:16:13;;;;;;;6.78;2.30;;;17.90;57.00;;;;;;5058607;28;20052;-89
2023/08/10 05:18:41;;;;;;;3.45;2.30;;;17.90;56.90;;;;;;5054975;28;20056;-89
2023/08/10 05:21:08;;;;;;;4.10;2.17;;;17.90;56.90;;;;;;5057020;28;20044;-89
2023/08/10 05:23:38;;;;;;;3.67;2.30;;;17.90;56.80;;;;;;5060470;28;20515;-88
2023/08/10 05:26:05;;;;;;;3.17;1.90;;;17.90;56.90;;;;;;5058303;28;20059;-88
2023/08/10 05:28:32;;;;;;;6.50;2.38;;;18.00;57.00;;;;;;5057864;28;20048;-88
2023/08/10 05:31:00;;;;;;;3.67;2.13;;;18.00;57.00;;;;;;5056732;28;20412;-88
2023/08/10 05:33:28;;;;;;;2.97;1.88;;;18.00;57.00;;;;;;5057133;28;20484;-89
2023/08/10 05:35:55;;;;;;;6.05;2.40;;;18.00;56.90;;;;;;5059353;28;20061;-89
2023/08/10 05:38:22;;;;;;;4.10;1.90;;;18.00;56.90;;;;;;5059890;28;20423;-88
2023/08/10 05:40:51;;;;;;;4.18;2.38;;;18.10;56.90;;;;;;5057481;28;20056;-88
2023/08/10 05:43:18;;;;;;;3.83;2.45;;;18.10;56.80;;;;;;5058400;28;20523;-90
2023/08/10 05:45:49;;;;;;;8.57;2.80;;;18.10;56.80;;;;;;5066612;28;20056;-90
2023/08/10 05:48:24;;;;;;;8.20;2.63;;;18.20;56.90;;;;;;5072006;28;20049;-92
2023/08/10 05:50:51;;;;;;;3.75;2.28;;;18.20;56.80;;;;;;5059999;28;20060;-88
2023/08/10 05:53:18;;;;;;;5.65;2.70;;;18.30;56.60;;;;;;5066211;28;20411;-91
2023/08/10 05:55:46;;;;;;;4.68;2.55;;;18.30;56.50;;;;;;5057768;28;20055;-88
2023/08/10 05:58:14;;;;;;;5.80;2.58;;;18.30;56.50;;;;;;5058053;28;20052;-91
2023/08/10 06:00:42;;;;;;;6.63;2.92;;;18.40;56.50;;;;;;5055732;28;20060;-92
2023/08/10 06:03:09;;;;;;;4.95;2.70;;;18.40;56.30;;;;;;5061341;28;20053;-90
2023/08/10 06:05:37;;;;;;;10.55;2.67;;;18.40;56.00;;;;;;5063013;28;20056;-87
2023/08/10 06:08:07;;;;;;;26.67;13.82;;;18.40;55.90;;;;;;5057170;28;20053;-88
2023/08/10 06:10:34;;;;;;;10.13;4.80;;;18.40;55.70;;;;;;5058951;28;20048;-91
2023/08/10 06:13:03;;;;;;;6.40;3.20;;;18.40;55.50;;;;;;5050373;28;20060;-92
2023/08/10 06:15:32;;;;;;;5.57;2.92;;;18.40;55.30;;;;;;5052989;28;20052;-91
2023/08/10 06:18:00;;;;;;;6.35;2.85;;;18.40;55.20;;;;;;5061974;28;20377;-92
2023/08/10 06:20:28;;;;;;;6.97;3.47;;;18.50;55.10;;;;;;5053492;28;20527;-91
2023/08/10 06:22:55;;;;;;;5.47;2.90;;;18.50;55.10;;;;;;5064977;28;20048;-91
2023/08/10 06:25:24;;;;;;;7.93;2.97;;;18.40;54.90;;;;;;5060795;28;20053;-92
2023/08/10 06:27:51;;;;;;;7.07;2.83;;;18.50;55.00;;;;;;5054995;28;20052;-89
2023/08/10 06:30:19;;;;;;;5.55;2.80;;;18.40;55.00;;;;;;5058916;28;20048;-92
2023/08/10 06:32:48;;;;;;;5.32;2.88;;;18.40;55.00;;;;;;5066093;28;20052;-91
2023/08/10 06:35:15;;;;;;;8.43;3.20;;;18.40;54.90;;;;;;5056326;28;20055;-92
2023/08/10 06:37:43;;;;;;;8.52;3.58;;;18.40;55.00;;;;;;5064694;28;20056;-88
2023/08/10 06:40:14;;;;;;;13.23;3.33;;;18.40;55.00;;;;;;5058632;28;20084;-90
2023/08/10 06:42:42;;;;;;;7.85;3.58;;;18.30;55.10;;;;;;5055752;28;20067;-90
2023/08/10 06:45:10;;;;;;;3.88;2.50;;;18.40;54.90;;;;;;5056399;28;20063;-93
2023/08/10 06:47:38;;;;;;;7.70;3.22;;;18.30;54.00;;;;;;5058755;28;20055;-90
2023/08/10 06:50:08;;;;;;;10.85;3.47;;;18.30;54.20;;;;;;5058272;28;20045;-91
2023/08/10 06:52:36;;;;;;;7.15;3.22;;;18.30;54.30;;;;;;5059986;28;20052;-87
2023/08/10 06:55:05;;;;;;;6.10;3.30;;;18.30;54.40;;;;;;5058338;28;20063;-92
2023/08/10 06:57:34;;;;;;;11.25;3.58;;;18.30;54.40;;;;;;5055646;28;20059;-88
2023/08/10 07:00:02;;;;;;;7.03;3.03;;;18.30;54.50;;;;;;5059195;28;20459;-90
2023/08/10 07:02:30;;;;;;;5.57;2.83;;;18.30;54.50;;;;;;5061255;28;20056;-92
2023/08/10 07:04:57;;;;;;;7.22;2.83;;;18.30;54.60;;;;;;5059051;28;20052;-88
2023/08/10 07:07:26;;;;;;;8.27;3.30;;;18.40;55.00;;;;;;5056252;28;20055;-91
2023/08/10 07:09:53;;;;;;;7.18;3.20;;;18.40;55.10;;;;;;5057447;28;20052;-89
2023/08/10 07:12:20;;;;;;;8.35;3.25;;;18.40;55.10;;;;;;5055991;28;20056;-87
2023/08/10 07:14:48;;;;;;;6.68;3.35;;;18.40;55.20;;;;;;5058452;28;20075;-90
2023/08/10 07:17:15;;;;;;;10.95;3.80;;;18.40;55.10;;;;;;5056979;28;20385;-91
2023/08/10 07:19:43;;;;;;;6.10;3.03;;;18.50;55.10;;;;;;5059703;28;20048;-92
2023/08/10 07:22:10;;;;;;;5.22;2.38;;;18.50;54.40;;;;;;5063699;28;20079;-93
2023/08/10 07:24:39;;;;;;;8.38;3.20;;;18.50;54.40;;;;;;5066248;28;20289;-92
2023/08/10 07:27:08;;;;;;;9.45;2.80;;;18.50;53.90;;;;;;5062618;28;20053;-92
2023/08/10 07:29:36;;;;;;;4.50;2.38;;;18.60;53.80;;;;;;5064687;28;20056;-90
2023/08/10 07:32:06;;;;;;;6.95;2.67;;;18.50;53.80;;;;;;5064428;28;20059;-88
2023/08/10 07:34:33;;;;;;;6.07;2.58;;;18.60;53.90;;;;;;5058693;28;20057;-87
2023/08/10 07:37:01;;;;;;;6.53;2.58;;;18.60;53.30;;;;;;5061022;28;20052;-88
2023/08/10 07:39:28;;;;;;;6.72;2.50;;;18.60;53.30;;;;;;5063370;28;20056;-89
2023/08/10 07:41:57;;;;;;;4.88;2.42;;;18.60;53.60;;;;;;5056993;28;20055;-92
2023/08/10 07:44:24;;;;;;;6.20;2.10;;;18.70;53.80;;;;;;5067714;28;20499;-93
2023/08/10 07:46:52;;;;;;;7.13;2.97;;;18.70;53.40;;;;;;5060141;28;20052;-91
2023/08/10 07:49:20;;;;;;;6.03;2.72;;;18.80;52.90;;;;;;5057576;28;20044;-87
2023/08/10 07:51:47;;;;;;;6.88;2.45;;;18.80;52.60;;;;;;5057531;28;20064;-88
2023/08/10 07:54:15;;;;;;;7.07;2.30;;;18.80;52.80;;;;;;5060712;28;20052;-91
2023/08/10 07:56:44;;;;;;;4.85;2.17;;;18.90;53.10;;;;;;5059231;28;20067;-88
2023/08/10 07:59:13;;;;;;;5.30;1.83;;;18.90;53.10;;;;;;5063518;28;20373;-88
2023/08/10 08:01:41;;;;;;;6.85;2.40;;;18.90;53.20;;;;;;5060767;28;20052;-91
2023/08/10 08:04:12;;;;;;;9.38;2.75;;;19.00;52.80;;;;;;5059941;28;20071;-92
2023/08/10 08:06:40;;;;;;;6.80;2.42;;;19.00;52.20;;;;;;5060748;28;20052;-90
2023/08/10 08:09:07;;;;;;;8.82;2.60;;;19.00;52.20;;;;;;5063464;28;20455;-92
2023/08/10 08:11:35;;;;;;;4.90;1.98;;;19.10;52.40;;;;;;5060427;28;20420;-90
2023/08/10 08:14:03;;;;;;;8.07;3.30;;;19.20;52.70;;;;;;5062429;28;20044;-89
2023/08/10 08:16:32;;;;;;;4.15;1.85;;;19.20;52.60;;;;;;5065273;28;20416;-87
2023/08/10 08:18:59;;;;;;;4.18;1.90;;;19.20;52.60;;;;;;5060785;28;20250;-92
2023/08/10 08:21:28;;;;;;;6.00;2.67;;;19.30;52.50;;;;;;5063235;28;20051;-87
2023/08/10 08:23:57;;;;;;;5.03;2.60;;;19.40;52.10;;;;;;5066926;28;20049;-91
2023/08/10 08:26:26;;;;;;;4.80;2.13;;;19.40;51.60;;;;;;5061131;28;20052;-92
2023/08/10 08:28:54;;;;;;;4.65;2.10;;;19.40;51.50;;;;;;5055879;28;20052;-92
2023/08/10 08:31:23;;;;;;;5.60;2.08;;;19.40;51.60;;;;;;5064534;28;20172;-93
2023/08/10 08:33:52;;;;;;;4.68;2.47;;;19.50;51.10;;;;;;5072450;28;20059;-91
2023/08/10 08:36:19;;;;;;;5.50;2.03;;;19.50;50.80;;;;;;5064976;28;20052;-87
2023/08/10 08:38:47;;;;;;;3.88;1.98;;;19.50;50.40;;;;;;5057149;28;20059;-93
2023/08/10 08:41:18;;;;;;;5.22;2.45;;;19.60;50.70;;;;;;5055480;28;20055;-88
2023/08/10 08:43:47;;;;;;;4.57;2.03;;;19.60;50.40;;;;;;5060933;28;20865;-91
2023/08/10 08:46:16;;;;;;;5.90;2.10;;;19.60;50.50;;;;;;5067159;28;20067;-94
2023/08/10 08:48:49;;;;;;;8.20;2.38;;;19.70;50.60;;;;;;5073626;28;20055;-92
2023/08/10 08:51:18;;;;;;;4.75;1.88;;;19.70;50.80;;;;;;5073138;28;20060;-92
2023/08/10 08:53:46;;;;;;;3.08;1.40;;;19.80;50.80;;;;;;5060174;28;20693;-92
2023/08/10 08:56:14;;;;;;;3.75;1.73;;;19.80;51.00;;;;;;5059036;28;20049;-92
2023/08/10 08:58:41;;;;;;;5.07;2.05;;;19.80;50.70;;;;;;5060302;28;20071;-87
2023/08/10 09:01:09;;;;;;;5.40;2.10;;;19.90;50.20;;;;;;5060358;28;20415;-90
2023/08/10 09:03:37;;;;;;;5.95;2.22;;;20.00;49.60;;;;;;5058219;28;20056;-88
2023/08/10 09:06:04;;;;;;;4.95;2.13;;;20.00;48.20;;;;;;5060017;28;20052;-89
2023/08/10 09:08:34;;;;;;;2.90;1.63;;;20.00;48.10;;;;;;5059951;28;20970;-93
2023/08/10 09:11:02;;;;;;;6.53;1.90;;;20.00;48.70;;;;;;5061807;28;20555;-91
2023/08/10 09:13:30;;;;;;;3.92;1.60;;;20.00;49.10;;;;;;5058414;28;20052;-85
2023/08/10 09:16:08;;;;;;;12.85;1.95;;;20.10;49.20;;;;;;5059676;28;20052;-89
2023/08/10 09:18:38;;;;;;;4.45;1.60;;;20.10;49.10;;;;;;5059019;28;20067;-87
2023/08/10 09:21:14;;;;;;;4.22;1.77;;;20.20;47.90;;;;;;5056793;28;20055;-85
2023/08/10 09:23:44;;;;;;;4.70;1.60;;;20.20;46.90;;;;;;5059249;28;20064;-86
2023/08/10 09:26:13;;;;;;;4.10;1.83;;;20.30;47.20;;;;;;5057709;28;20503;-85
2023/08/10 09:28:40;;;;;;;6.70;1.98;;;20.30;48.00;;;;;;5064801;28;20048;-85
2023/08/10 09:31:09;;;;;;;8.30;1.90;;;20.30;47.20;;;;;;5056303;28;20412;-89
2023/08/10 09:33:37;;;;;;;3.33;1.48;;;20.30;47.60;;;;;;5055083;28;20057;-84
2023/08/10 09:36:12;;;;;;;8.32;1.65;;;20.40;47.20;;;;;;5055568;28;20063;-84
2023/08/10 09:38:49;;;;;;;4.93;1.63;;;20.50;47.50;;;;;;5056562;28;20388;-85
2023/08/10 09:41:20;;;;;;;2.88;1.40;;;20.50;46.50;;;;;;5053394;28;20048;-84
2023/08/10 09:43:49;;;;;;;3.28;1.40;;;20.50;46.10;;;;;;5057287;28;20045;-85
2023/08/10 09:46:17;;;;;;;3.42;1.27;;;20.60;47.10;;;;;;5059382;28;20055;-84
2023/08/10 09:48:47;;;;;;;3.58;1.20;;;20.60;46.90;;;;;;5060875;28;20441;-84
2023/08/10 09:51:15;;;;;;;3.63;1.25;;;20.70;46.70;;;;;;5055076;28;20048;-86
2023/08/10 09:53:43;;;;;;;5.70;1.63;;;20.70;46.80;;;;;;5057197;28;20408;-83
2023/08/10 09:56:11;;;;;;;5.13;1.08;;;20.80;46.40;;;;;;5057616;28;20059;-87
2023/08/10 09:58:41;;;;;;;4.93;1.30;;;20.80;44.70;;;;;;5057006;28;20063;-88
2023/08/10 10:01:09;;;;;;;4.05;1.10;;;20.90;44.50;;;;;;5057350;28;20071;-86
2023/08/10 10:03:37;;;;;;;2.83;1.17;;;20.90;44.40;;;;;;5059025;28;20051;-86
2023/08/10 10:06:05;;;;;;;3.58;1.55;;;20.90;44.20;;;;;;5056879;28;20048;-85
2023/08/10 10:08:36;;;;;;;3.78;1.33;;;21.00;43.80;;;;;;5057310;28;20045;-84
2023/08/10 10:11:10;;;;;;;4.70;1.67;;;21.00;44.10;;;;;;5057310;28;20052;-85
2023/08/10 10:13:37;;;;;;;;;;;21.00;43.90;;;;;;5059296;28;20444;-86
2023/08/10 10:16:08;;;;;;;3.88;1.08;;;21.10;45.00;;;;;;5055861;28;20010;-87
2023/08/10 10:18:36;;;;;;;2.53;0.90;;;21.10;45.00;;;;;;5056610;28;20044;-84
2023/08/10 10:21:06;;;;;;;7.28;1.60;;;21.10;45.50;;;;;;5057847;28;20484;-87
2023/08/10 10:23:33;;;;;;;4.53;1.35;;;21.20;45.90;;;;;;5038086;28;20060;-85
2023/08/10 10:26:02;;;;;;;3.50;1.67;;;21.30;45.50;;;;;;5055815;28;20052;-85
2023/08/10 10:28:32;;;;;;;4.25;1.55;;;21.30;44.00;;;;;;5057169;28;20051;-86
2023/08/10 10:31:10;;;;;;;4.32;1.27;;;21.40;43.40;;;;;;5053959;28;20056;-87
2023/08/10 10:33:38;;;;;;;8.13;1.42;;;21.40;43.40;;;;;;5058454;28;20415;-85
2023/08/10 10:36:08;;;;;;;5.05;1.60;;;21.40;43.90;;;;;;5057726;28;20059;-86
2023/08/10 10:38:35;;;;;;;3.08;1.40;;;21.40;44.30;;;;;;5056670;28;20075;-86
2023/08/10 10:41:15;;;;;;;3.95;1.20;;;21.40;44.50;;;;;;5064255;28;20049;-87
2023/08/10 10:43:44;;;;;;;2.67;1.10;;;21.60;44.60;;;;;;5053981;28;20052;-86
2023/08/10 10:46:37;;;;;;;3.20;1.20;;;21.60;45.00;;;;;;5056987;28;20396;-85
2023/08/10 10:49:11;;;;;;;6.50;1.70;;;21.70;44.70;;;;;;5062810;28;20052;-86
2023/08/10 10:51:52;;;;;;;2.53;1.13;;;21.70;44.60;;;;;;5060151;28;20594;-86
2023/08/10 10:54:20;;;;;;;4.05;1.20;;;21.80;44.60;;;;;;5057115;28;20063;-86
2023/08/10 10:56:48;;;;;;;4.15;1.85;;;21.80;44.90;;;;;;5056935;28;20059;-85
2023/08/10 10:59:16;;;;;;;2.17;1.17;;;21.80;44.70;;;;;;5054813;28;20061;-86
2023/08/10 11:01:48;;;;;;;3.97;1.20;;;21.90;43.40;;;;;;5056938;28;20059;-88
2023/08/10 11:04:15;;;;;;;3.85;1.33;;;21.90;43.50;;;;;;5059740;28;20053;-85
2023/08/10 11:06:43;;;;;;;2.13;1.30;;;21.90;43.80;;;;;;5054578;28;20049;-92
2023/08/10 11:09:13;;;;;;;2.28;1.27;;;22.00;44.10;;;;;;5056047;28;20071;-87
2023/08/10 11:11:40;;;;;;;3.42;1.20;;;22.00;44.10;;;;;;5054497;28;20057;-86
2023/08/10 11:14:07;;;;;;;3.35;1.23;;;22.10;43.20;;;;;;5055205;28;20053;-86
2023/08/10 11:16:41;;;;;;;5.80;1.52;;;22.00;43.20;;;;;;5065496;28;20052;-87
2023/08/10 11:19:13;;;;;;;3.50;1.40;;;22.10;42.50;;;;;;5058182;28;20060;-86
2023/08/10 11:21:43;;;;;;;6.78;1.80;;;22.10;42.90;;;;;;5060735;28;20440;-87
2023/08/10 11:24:11;;;;;;;3.30;1.60;;;22.20;43.30;;;;;;5059388;28;20056;-87
2023/08/10 11:26:38;;;;;;;3.05;1.38;;;22.20;43.30;;;;;;5058296;28;20052;-86
2023/08/10 11:29:06;;;;;;;3.03;1.27;;;22.20;42.80;;;;;;5057213;28;20079;-86
2023/08/10 11:31:40;;;;;;;5.28;1.42;;;22.20;43.40;;;;;;5058515;28;20064;-86
2023/08/10 11:34:22;;;;;;;5.30;1.60;;;22.30;42.60;;;;;;5059245;28;20053;-86
2023/08/10 11:36:51;;;;;;;3.25;1.70;;;22.40;42.50;;;;;;5056174;28;20059;-85
2023/08/10 11:39:18;;;;;;;2.90;1.45;;;22.40;42.10;;;;;;5060454;28;20048;-86
2023/08/10 11:41:46;;;;;;;3.92;1.52;;;22.40;42.30;;;;;;5059055;28;20052;-86
2023/08/10 11:44:27;;;;;;;3.25;1.40;;;22.40;42.60;;;;;;5058533;28;20591;-86
2023/08/10 11:46:57;;;;;;;4.95;2.03;;;22.50;41.30;;;;;;5058793;28;20057;-86
2023/08/10 11:49:28;;;;;;;4.03;1.73;;;22.50;40.70;;;;;;5059473;28;20052;-84
2023/08/10 11:51:59;;;;;;;3.90;1.50;;;22.50;41.00;;;;;;5058158;28;20056;-84
2023/08/10 11:54:30;;;;;;;2.72;1.17;;;22.60;41.90;;;;;;5060158;28;20404;-85
2023/08/10 11:56:57;;;;;;;4.45;1.55;;;22.60;42.50;;;;;;5055998;28;20064;-85
2023/08/10 11:59:25;;;;;;;4.22;1.60;;;22.70;41.90;;;;;;5059677;28;20060;-86
2023/08/10 12:01:54;;;;;;;2.83;1.40;;;22.70;41.70;;;;;;5060196;28;20048;-84
2023/08/10 12:04:21;;;;;;;2.95;1.77;;;22.70;42.50;;;;;;5054803;28;20598;-86
2023/08/10 12:06:50;;;;;;;2.97;1.50;;;22.80;42.60;;;;;;5060932;28;20060;-84
2023/08/10 12:09:17;;;;;;;5.60;1.77;;;22.80;41.80;;;;;;5063554;28;20522;-84
2023/08/10 12:11:48;;;;;;;4.00;1.73;;;22.80;41.60;;;;;;5061257;28;20428;-84
2023/08/10 12:14:19;;;;;;;4.22;1.30;;;22.90;42.00;;;;;;5063008;28;20415;-83
2023/08/10 12:16:47;;;;;;;4.45;1.90;;;22.90;42.50;;;;;;5069577;28;20063;-83
2023/08/10 12:19:14;;;;;;;2.92;1.58;;;23.00;42.80;;;;;;5062658;28;20523;-85
2023/08/10 12:21:41;;;;;;;5.47;1.73;;;23.10;42.80;;;;;;5061626;28;20415;-84
2023/08/10 12:24:10;;;;;;;1.88;1.35;;;23.10;42.20;;;;;;5063188;28;20499;-88
2023/08/10 12:26:37;;;;;;;3.83;1.50;;;23.10;41.50;;;;;;5062392;28;20068;-83
2023/08/10 12:29:05;;;;;;;1.77;1.20;;;23.10;42.40;;;;;;5062625;28;20056;-84
2023/08/10 12:31:32;;;;;;;4.55;1.13;;;23.10;42.40;;;;;;5065789;28;20472;-84
2023/08/10 12:33:59;;;;;;;3.83;1.70;;;23.20;42.70;;;;;;5063881;28;20427;-85
2023/08/10 12:36:27;;;;;;;4.13;1.85;;;23.20;43.00;;;;;;5067885;28;20496;-85
2023/08/10 12:38:57;;;;;;;3.20;1.67;;;23.30;42.60;;;;;;5063288;28;20403;-84
2023/08/10 12:41:26;;;;;;;4.32;1.60;;;23.30;42.40;;;;;;5061141;28;20507;-83
2023/08/10 12:43:54;;;;;;;5.45;1.75;;;23.30;43.00;;;;;;5062422;28;21481;-91
2023/08/10 12:46:21;;;;;;;3.03;1.70;;;23.40;43.30;;;;;;5055005;28;20055;-90
2023/08/10 12:48:48;;;;;;;3.42;1.45;;;23.40;43.20;;;;;;5056633;28;20059;-88
2023/08/10 12:51:17;;;;;;;3.83;1.77;;;23.40;43.10;;;;;;5058598;28;20060;-86
2023/08/10 12:53:45;;;;;;;2.58;1.40;;;23.50;42.80;;;;;;5061933;28;20053;-87